»·PEaware :: AEA291 KBFI-KPSC

AEA291 :: KBFI-KPSC

FLIGHT INFORMATION

Flight Status: Arrived
Operator:
Air Europa
More flights by this operator :: More flights under this callsign
Pilot: Alfonso U. (14209)
Aircraft: BOEING 737-800
(B738)
More flights by this aircraft type
Origin: KBFI Boeing Field/King Co Intl
United States
Destination: KPSC Tri-Cities
United States
More flights between these airports :: More routes between these airports
Route: +NRVNA1 VAMPS V2 ELN V187 PSC
File this flight plan on PilotEdge
Remarks:
Altitude:
(Current/Filed)
17,000ft
Speed:
(Current/Filed)
500kts
Departed: 13-Dec-17 10:48 AM
Arrived: 13-Dec-17 11:22 AM
Distance/Time
Traveled:
151nm/0:34
Distance/Time
To Go:
Arrived

Flight Plot

Page will automatically refresh every two minutes.

Flight plan parsing failed; only flown route is shown


Map Options




Map Legend


Flown Route
Filed Route
Departure Airport
Arrival Airport
Navaid (VOR, NDB)
Fix

Horizontal Profiles

Position Reports

Time Latitude Longitude Heading Altitude Ground
Speed
13-Dec-17 10:30 47.537090 -122.311466 62 26ft 0kts
13-Dec-17 10:31 47.537090 -122.311466 62 26ft 0kts
13-Dec-17 10:32 47.537090 -122.311466 62 26ft 0kts
13-Dec-17 10:33 47.537090 -122.311466 62 26ft 0kts
13-Dec-17 10:34 47.537090 -122.311466 62 26ft 0kts
13-Dec-17 10:35 47.537090 -122.311466 62 26ft 0kts
13-Dec-17 10:36 47.537090 -122.311466 62 26ft 0kts
13-Dec-17 10:37 47.537090 -122.311466 62 26ft 0kts
13-Dec-17 10:38 47.537090 -122.311466 62 26ft 0kts
13-Dec-17 10:39 47.537090 -122.311466 62 26ft 0kts
13-Dec-17 10:40 47.537090 -122.311466 62 26ft 0kts
13-Dec-17 10:41 47.537090 -122.311466 62 26ft 0kts
13-Dec-17 10:42 47.536862 -122.311882 33 26ft 2kts
13-Dec-17 10:43 47.536847 -122.311896 33 26ft 0kts
13-Dec-17 10:44 47.536847 -122.311896 33 26ft 0kts
13-Dec-17 10:45 47.536847 -122.311896 33 26ft 0kts
13-Dec-17 10:46 47.536847 -122.311896 33 26ft 0kts
13-Dec-17 10:47 47.536847 -122.311896 33 26ft 0kts
13-Dec-17 10:48 47.536847 -122.311896 33 26ft 0kts
13-Dec-17 10:49 47.536847 -122.311896 33 26ft 0kts
13-Dec-17 10:50 47.538281 -122.313407 329 26ft 14kts
13-Dec-17 10:51 47.539974 -122.312479 61 26ft 0kts
13-Dec-17 10:52 47.539974 -122.312479 61 26ft 0kts
13-Dec-17 10:53 47.539974 -122.312478 61 26ft 0kts
13-Dec-17 10:54 47.533708 -122.305895 149 26ft 115kts
13-Dec-17 10:55 47.494195 -122.272454 149 1982ft 197kts
13-Dec-17 10:56 47.443244 -122.229399 149 1971ft 213kts
13-Dec-17 10:57 47.390663 -122.185163 148 4254ft 218kts
13-Dec-17 10:58 47.344524 -122.126029 117 6220ft 229kts
13-Dec-17 10:59 47.317990 -122.039910 82 8172ft 232kts
13-Dec-17 11:00 47.357647 -121.970234 65 10084ft 235kts
13-Dec-17 11:01 47.343824 -121.870531 104 11900ft 280kts
13-Dec-17 11:02 47.315144 -121.747558 103 13369ft 354kts
13-Dec-17 11:03 47.281323 -121.596012 103 14464ft 422kts
13-Dec-17 11:04 47.243903 -121.427159 103 16528ft 445kts
13-Dec-17 11:05 47.205253 -121.252056 102 16942ft 449kts
13-Dec-17 11:06 47.166083 -121.077740 102 16967ft 450kts
13-Dec-17 11:07 47.126545 -120.903742 102 17015ft 449kts
13-Dec-17 11:08 47.086958 -120.728871 102 17068ft 451kts
13-Dec-17 11:09 47.046776 -120.554995 102 17096ft 451kts
13-Dec-17 11:10 47.007798 -120.381402 100 16928ft 449kts
13-Dec-17 11:11 46.971674 -120.206740 100 16953ft 448kts
13-Dec-17 11:12 46.934528 -120.032369 100 16966ft 449kts
13-Dec-17 11:13 46.887301 -119.862064 120 16981ft 466kts
13-Dec-17 11:14 46.789782 -119.734807 137 16986ft 474kts
13-Dec-17 11:15 46.687534 -119.613649 137 17000ft 474kts
13-Dec-17 11:16 46.587415 -119.493881 137 14863ft 450kts
13-Dec-17 11:17 46.518389 -119.361860 90 11468ft 396kts
13-Dec-17 11:18 46.519591 -119.207247 85 7962ft 371kts
13-Dec-17 11:19 46.524034 -119.062663 85 5476ft 350kts
13-Dec-17 11:20 46.525009 -118.928386 111 5031ft 298kts
13-Dec-17 11:21 46.463228 -118.904704 195 4968ft 225kts
13-Dec-17 11:22 46.410705 -118.925801 195 4355ft 174kts
13-Dec-17 11:23 46.375552 -118.955721 226 3313ft 139kts
13-Dec-17 11:24 46.348466 -118.996398 226 2595ft 140kts
13-Dec-17 11:25 46.321336 -119.036670 226 1852ft 139kts
13-Dec-17 11:26 46.294203 -119.076870 226 1101ft 138kts
13-Dec-17 11:27 46.267420 -119.116336 225 416ft 134kts
13-Dec-17 11:28 46.260130 -119.127259 224 415ft 1kts
13-Dec-17 11:29 46.259142 -119.124173 67 415ft 10kts
13-Dec-17 11:30 46.260637 -119.118722 67 415ft 17kts
13-Dec-17 11:31 46.260288 -119.117588 155 415ft 0kts
13-Dec-17 11:31 46.260287 -119.117588 155 415ft 0kts
13-Dec-17 11:33 46.260287 -119.117588 155 415ft 0kts
13-Dec-17 11:34 46.260287 -119.117588 155 415ft 0kts
13-Dec-17 11:35 46.260287 -119.117588 155 415ft 0kts
13-Dec-17 11:35 46.260287 -119.117588 155 415ft 0kts
13-Dec-17 11:37 46.260287 -119.117588 155 415ft 0kts

Navigation Log

Ident Type
Flight plan parsing failed, navigation log unavailable